N17X KPDX-
Flight info
| Callsign | N17X |
|---|---|
| Flight time | N/A |
| Altitude | VFR/035 |
| Route | VFR DEP E |
| Aircraft | H500/L-VGD/C |
Departure
| Time | 2026-05-06 23:59 |
|---|---|
| Airport | Portland International Airport (KPDX) |
Arrival
| Time | N/A |
|---|---|
| Airport | - |
| Time | Latitude | Longitude | Altitude | Speed | Heading |
|---|---|---|---|---|---|
| 2026-05-06 23:52 | 45.58716 | -122.58315 | 13 ft | 0 kts | 213° |
| 2026-05-06 23:53 | 45.58716 | -122.58311 | 21 ft | 2 kts | 243° |
| 2026-05-06 23:53 | 45.58743 | -122.58314 | 26 ft | 10 kts | 22° |
| 2026-05-06 23:53 | 45.58823 | -122.58252 | 32 ft | 15 kts | 67° |
| 2026-05-06 23:54 | 45.58801 | -122.58150 | 27 ft | 17 kts | 114° |
| 2026-05-06 23:54 | 45.58737 | -122.57971 | 36 ft | 22 kts | 112° |
| 2026-05-06 23:54 | 45.58653 | -122.57760 | 37 ft | 27 kts | 114° |
| 2026-05-06 23:54 | 45.58555 | -122.57503 | 36 ft | 31 kts | 115° |
| 2026-05-06 23:55 | 45.58452 | -122.57237 | 28 ft | 31 kts | 117° |
| 2026-05-06 23:55 | 45.58353 | -122.56988 | 34 ft | 27 kts | 115° |
| 2026-05-06 23:55 | 45.58269 | -122.56785 | 33 ft | 17 kts | 85° |
| 2026-05-06 23:55 | 45.58268 | -122.56726 | 17 ft | 0 kts | 25° |
| 2026-05-06 23:57 | 45.58271 | -122.56723 | 29 ft | 4 kts | 13° |
| 2026-05-06 23:57 | 45.58367 | -122.56722 | 61 ft | 28 kts | 295° |
| 2026-05-06 23:58 | 45.58542 | -122.57155 | 77 ft | 73 kts | 294° |
| 2026-05-06 23:58 | 45.58811 | -122.57820 | 291 ft | 75 kts | 295° |
| 2026-05-06 23:58 | 45.59078 | -122.58459 | 507 ft | 81 kts | 294° |
| 2026-05-06 23:58 | 45.59380 | -122.59235 | 593 ft | 94 kts | 295° |
| 2026-05-06 23:59 | 45.59871 | -122.59836 | 717 ft | 99 kts | 340° |
| 2026-05-06 23:59 | 45.60450 | -122.59431 | 806 ft | 106 kts | 58° |
| 2026-05-06 23:59 | 45.60340 | -122.58393 | 978 ft | 109 kts | 109° |
| 2026-05-06 23:59 | 45.59937 | -122.57490 | 1138 ft | 117 kts | 109° |
| 2026-05-07 00:00 | 45.59550 | -122.56413 | 1190 ft | 124 kts | 107° |
| 2026-05-07 00:00 | 45.59196 | -122.55285 | 1199 ft | 124 kts | 104° |
| 2026-05-07 00:00 | 45.58827 | -122.54265 | 1070 ft | 107 kts | 115° |
| 2026-05-07 00:00 | 45.58190 | -122.53880 | 863 ft | 100 kts | 183° |
| 2026-05-07 00:01 | 45.57725 | -122.54487 | 762 ft | 93 kts | 258° |
| 2026-05-07 00:01 | 45.57909 | -122.55371 | 532 ft | 90 kts | 285° |
| 2026-05-07 00:01 | 45.58141 | -122.56070 | 387 ft | 64 kts | 289° |
| 2026-05-07 00:01 | 45.58309 | -122.56558 | 227 ft | 50 kts | 291° |
| 2026-05-07 00:02 | 45.58478 | -122.56988 | 71 ft | 39 kts | 287° |
| 2026-05-07 00:02 | 45.58537 | -122.57135 | 27 ft | 1 kts | 299° |
| 2026-05-07 00:02 | 45.58650 | -122.57436 | 85 ft | 74 kts | 301° |
| 2026-05-07 00:02 | 45.58934 | -122.58131 | 395 ft | 85 kts | 303° |
| 2026-05-07 00:03 | 45.59343 | -122.58776 | 626 ft | 96 kts | 334° |
| 2026-05-07 00:03 | 45.59987 | -122.58662 | 844 ft | 98 kts | 19° |
| 2026-05-07 00:03 | 45.60609 | -122.58216 | 1057 ft | 101 kts | 26° |
| 2026-05-07 00:03 | 45.61223 | -122.57692 | 1214 ft | 106 kts | 26° |
| 2026-05-07 00:04 | 45.61855 | -122.57094 | 1355 ft | 112 kts | 26° |
| 2026-05-07 00:04 | 45.62520 | -122.56436 | 1412 ft | 121 kts | 26° |
| 2026-05-07 00:04 | 45.63100 | -122.55495 | 1363 ft | 135 kts | 58° |
| 2026-05-07 00:04 | 45.63360 | -122.54217 | 1400 ft | 133 kts | 77° |
| 2026-05-07 00:05 | 45.63348 | -122.52911 | 1492 ft | 129 kts | 90° |
| 2026-05-07 00:05 | 45.63248 | -122.51623 | 1496 ft | 132 kts | 87° |
| 2026-05-07 00:05 | 45.63302 | -122.50305 | 1495 ft | 133 kts | 76° |
| 2026-05-07 00:05 | 45.63533 | -122.49028 | 1493 ft | 132 kts | 69° |
| 2026-05-07 00:06 | 45.63587 | -122.47740 | 1500 ft | 130 kts | 85° |
| 2026-05-07 00:06 | 45.63507 | -122.46463 | 1500 ft | 128 kts | 84° |
| 2026-05-07 00:06 | 45.63495 | -122.45220 | 1494 ft | 124 kts | 82° |
| 2026-05-07 00:06 | 45.63529 | -122.44059 | 1495 ft | 112 kts | 78° |
| 2026-05-07 00:07 | 45.63557 | -122.42954 | 1496 ft | 111 kts | 83° |
| 2026-05-07 00:07 | 45.63530 | -122.41854 | 1496 ft | 113 kts | 84° |
| 2026-05-07 00:07 | 45.63425 | -122.40745 | 1495 ft | 111 kts | 85° |
| 2026-05-07 00:07 | 45.63387 | -122.39654 | 1499 ft | 111 kts | 77° |
| 2026-05-07 00:08 | 45.63356 | -122.38537 | 1498 ft | 112 kts | 80° |
| 2026-05-07 00:08 | 45.63352 | -122.37419 | 1497 ft | 113 kts | 77° |
| 2026-05-07 00:08 | 45.63428 | -122.36278 | 1497 ft | 119 kts | 73° |
| 2026-05-07 00:08 | 45.63441 | -122.35081 | 1491 ft | 121 kts | 84° |
| 2026-05-07 00:09 | 45.63454 | -122.33928 | 1494 ft | 107 kts | 78° |
| 2026-05-07 00:09 | 45.63571 | -122.32944 | 1492 ft | 95 kts | 82° |
| 2026-05-07 00:09 | 45.63482 | -122.32007 | 1504 ft | 97 kts | 96° |
| 2026-05-07 00:09 | 45.63458 | -122.31075 | 1498 ft | 90 kts | 81° |
| 2026-05-07 00:10 | 45.63430 | -122.30183 | 1498 ft | 88 kts | 96° |
| 2026-05-07 00:10 | 45.63355 | -122.29330 | 1505 ft | 86 kts | 89° |
| 2026-05-07 00:10 | 45.63348 | -122.28461 | 1497 ft | 87 kts | 79° |
| 2026-05-07 00:10 | 45.63443 | -122.27624 | 1403 ft | 85 kts | 77° |
| 2026-05-07 00:11 | 45.63469 | -122.26890 | 1214 ft | 58 kts | 102° |
| 2026-05-07 00:11 | 45.63495 | -122.26501 | 1037 ft | 37 kts | 95° |
| 2026-05-07 00:11 | 45.63507 | -122.26179 | 985 ft | 32 kts | 98° |
| 2026-05-07 00:11 | 45.63555 | -122.25885 | 985 ft | 27 kts | 107° |
| 2026-05-07 00:12 | 45.63559 | -122.25574 | 1023 ft | 24 kts | 88° |
| 2026-05-07 00:12 | 45.63586 | -122.25268 | 1183 ft | 34 kts | 84° |
| 2026-05-07 00:12 | 45.63506 | -122.24901 | 1225 ft | 40 kts | 108° |
| 2026-05-07 00:12 | 45.63466 | -122.24612 | 1234 ft | 13 kts | 76° |
| 2026-05-07 00:13 | 45.63500 | -122.24542 | 1192 ft | 5 kts | 7° |
| 2026-05-07 00:13 | 45.63502 | -122.24573 | 1154 ft | 4 kts | 352° |
| 2026-05-07 00:13 | 45.63502 | -122.24559 | 1157 ft | 6 kts | 342° |
| 2026-05-07 00:13 | 45.63543 | -122.24529 | 1180 ft | 8 kts | 303° |
| 2026-05-07 00:14 | 45.63574 | -122.24564 | 1159 ft | 4 kts | 266° |
| 2026-05-07 00:14 | 45.63570 | -122.24580 | 1144 ft | 1 kts | 262° |
| 2026-05-07 00:14 | 45.63571 | -122.24579 | 1143 ft | 1 kts | 272° |
| 2026-05-07 00:14 | 45.63573 | -122.24577 | 1142 ft | 1 kts | 270° |
| 2026-05-07 00:15 | 45.63732 | -122.24395 | 1281 ft | 68 kts | 49° |
| 2026-05-07 00:15 | 45.63969 | -122.24243 | 1356 ft | 21 kts | 241° |
| 2026-05-07 00:15 | 45.63869 | -122.24439 | 1306 ft | 22 kts | 193° |
| 2026-05-07 00:15 | 45.63818 | -122.24387 | 1253 ft | 11 kts | 40° |
| 2026-05-07 00:16 | 45.63895 | -122.24292 | 1275 ft | 16 kts | 348° |
| 2026-05-07 00:16 | 45.63948 | -122.24328 | 1218 ft | 7 kts | 270° |
| 2026-05-07 00:16 | 45.63941 | -122.24363 | 1173 ft | 1 kts | 267° |
| 2026-05-07 00:16 | 45.63941 | -122.24362 | 1173 ft | 0 kts | 258° |
| 2026-05-07 00:17 | 45.63942 | -122.24361 | 1173 ft | 0 kts | 263° |
| 2026-05-07 00:19 | 45.63940 | -122.24371 | 1244 ft | 13 kts | 263° |
| 2026-05-07 00:19 | 45.63795 | -122.24804 | 1297 ft | 74 kts | 219° |
| 2026-05-07 00:19 | 45.63336 | -122.24554 | 1439 ft | 85 kts | 114° |
| 2026-05-07 00:20 | 45.63348 | -122.23702 | 1559 ft | 91 kts | 84° |
| 2026-05-07 00:20 | 45.63358 | -122.22717 | 1536 ft | 107 kts | 90° |
| 2026-05-07 00:20 | 45.63285 | -122.21618 | 1518 ft | 115 kts | 98° |
| 2026-05-07 00:20 | 45.63211 | -122.20454 | 1522 ft | 119 kts | 90° |
| 2026-05-07 00:21 | 45.63031 | -122.19296 | 1565 ft | 115 kts | 97° |
| 2026-05-07 00:21 | 45.63212 | -122.18309 | 1775 ft | 99 kts | 52° |
| 2026-05-07 00:21 | 45.63349 | -122.17428 | 2016 ft | 90 kts | 103° |
| 2026-05-07 00:21 | 45.63287 | -122.16580 | 2266 ft | 82 kts | 92° |
| 2026-05-07 00:22 | 45.63277 | -122.15751 | 2442 ft | 86 kts | 92° |
| 2026-05-07 00:22 | 45.63244 | -122.14861 | 2610 ft | 92 kts | 94° |
| 2026-05-07 00:22 | 45.63196 | -122.13901 | 2682 ft | 106 kts | 94° |
| 2026-05-07 00:22 | 45.63127 | -122.12777 | 2554 ft | 119 kts | 94° |
| 2026-05-07 00:23 | 45.63056 | -122.11587 | 2485 ft | 119 kts | 90° |
| 2026-05-07 00:23 | 45.63041 | -122.10493 | 2413 ft | 103 kts | 87° |
| 2026-05-07 00:23 | 45.63062 | -122.09514 | 2254 ft | 97 kts | 87° |
| 2026-05-07 00:23 | 45.63080 | -122.08495 | 2006 ft | 109 kts | 84° |
| 2026-05-07 00:24 | 45.62949 | -122.07520 | 1924 ft | 97 kts | 124° |
| 2026-05-07 00:24 | 45.62513 | -122.06753 | 1595 ft | 105 kts | 118° |
| 2026-05-07 00:24 | 45.62279 | -122.05790 | 1421 ft | 104 kts | 94° |
| 2026-05-07 00:24 | 45.62194 | -122.04760 | 1275 ft | 106 kts | 104° |
| 2026-05-07 00:25 | 45.62010 | -122.03726 | 1124 ft | 109 kts | 102° |
| 2026-05-07 00:25 | 45.61933 | -122.03008 | 1025 ft | 111 kts | 92° |
| 2026-05-07 00:25 | 45.62022 | -122.01974 | 1028 ft | 101 kts | 75° |
| 2026-05-07 00:25 | 45.62172 | -122.01007 | 1007 ft | 97 kts | 74° |
| 2026-05-07 00:26 | 45.62382 | -122.00100 | 999 ft | 96 kts | 63° |
| 2026-05-07 00:26 | 45.62820 | -121.99010 | 963 ft | 96 kts | 53° |
| 2026-05-07 00:26 | 45.63073 | -121.98469 | 915 ft | 97 kts | 52° |
| 2026-05-07 00:26 | 45.63462 | -121.97713 | 921 ft | 93 kts | 51° |
| 2026-05-07 00:27 | 45.63831 | -121.96968 | 961 ft | 90 kts | 52° |
| 2026-05-07 00:27 | 45.64180 | -121.96225 | 985 ft | 93 kts | 56° |
| 2026-05-07 00:27 | 45.64527 | -121.95382 | 913 ft | 102 kts | 56° |
| 2026-05-07 00:27 | 45.64867 | -121.94502 | 924 ft | 100 kts | 59° |
| 2026-05-07 00:28 | 45.65219 | -121.93679 | 989 ft | 95 kts | 45° |
| 2026-05-07 00:28 | 45.65727 | -121.93080 | 1007 ft | 94 kts | 35° |
| 2026-05-07 00:28 | 45.66223 | -121.92474 | 962 ft | 97 kts | 45° |
| 2026-05-07 00:28 | 45.66685 | -121.91802 | 909 ft | 87 kts | 40° |
| 2026-05-07 00:29 | 45.67035 | -121.91220 | 770 ft | 79 kts | 50° |
| 2026-05-07 00:29 | 45.67288 | -121.90536 | 631 ft | 69 kts | 56° |
| 2026-05-07 00:30 | 45.67944 | -121.89402 | 619 ft | 45 kts | 338° |
| 2026-05-07 00:30 | 45.68014 | -121.89877 | 422 ft | 36 kts | 250° |
| 2026-05-07 00:30 | 45.67977 | -121.90055 | 315 ft | 5 kts | 271° |
| 2026-05-07 00:30 | 45.68011 | -121.90196 | 296 ft | 15 kts | 314° |
| 2026-05-07 00:31 | 45.68166 | -121.90147 | 355 ft | 61 kts | 48° |
| 2026-05-07 00:31 | 45.68541 | -121.89561 | 424 ft | 91 kts | 50° |
| 2026-05-07 00:31 | 45.68885 | -121.88890 | 711 ft | 78 kts | 58° |
| 2026-05-07 00:31 | 45.69115 | -121.88262 | 876 ft | 67 kts | 64° |
| 2026-05-07 00:32 | 45.69393 | -121.87625 | 837 ft | 84 kts | 32° |
| 2026-05-07 00:32 | 45.69881 | -121.87696 | 862 ft | 74 kts | 296° |
| 2026-05-07 00:32 | 45.69968 | -121.88326 | 750 ft | 55 kts | 276° |
| 2026-05-07 00:32 | 45.70010 | -121.88724 | 521 ft | 25 kts | 287° |
| 2026-05-07 00:33 | 45.70026 | -121.88836 | 423 ft | 4 kts | 259° |
| 2026-05-07 00:33 | 45.70023 | -121.88849 | 404 ft | 0 kts | 266° |